createdAt,value
2023-01-27T00:00:39.316Z,110.90
2023-01-27T00:03:06.408Z,106.65
2023-01-27T00:05:33.102Z,106.18
2023-01-27T00:07:59.730Z,112.35
2023-01-27T00:10:27.231Z,113.72
2023-01-27T00:13:12.724Z,113.25
2023-01-27T00:15:40.260Z,109.43
2023-01-27T00:18:07.073Z,111.85
2023-01-27T00:20:52.363Z,115.82
2023-01-27T00:23:40.518Z,112.35
2023-01-27T00:26:14.310Z,114.43
2023-01-27T00:28:42.269Z,116.18
2023-01-27T00:31:29.724Z,113.25
2023-01-27T00:34:01.904Z,114.68
2023-01-27T00:36:29.638Z,112.72
2023-01-27T00:38:57.088Z,110.20
2023-01-27T00:41:23.790Z,104.20
2023-01-27T00:43:53.157Z,111.85
2023-01-27T00:46:22.403Z,115.13
2023-01-27T00:48:49.571Z,115.88
2023-01-27T00:51:17.439Z,108.18
2023-01-27T00:53:44.946Z,108.75
2023-01-27T00:56:12.014Z,111.00
2023-01-27T00:58:39.013Z,111.63
2023-01-27T01:01:10.221Z,113.38
2023-01-27T01:03:37.291Z,119.05
2023-01-27T01:06:13.051Z,116.20
2023-01-27T01:08:40.263Z,114.55
2023-01-27T01:11:09.101Z,115.32
2023-01-27T01:13:35.755Z,114.13
2023-01-27T01:16:13.949Z,112.20
2023-01-27T01:18:41.144Z,114.88
2023-01-27T01:21:07.962Z,125.72
2023-01-27T01:23:38.914Z,108.93
2023-01-27T01:26:05.684Z,127.78
2023-01-27T01:28:32.644Z,131.27
2023-01-27T01:31:25.700Z,121.68
2023-01-27T01:33:52.353Z,122.63
2023-01-27T01:36:20.743Z,112.07
2023-01-27T01:38:48.399Z,114.35
2023-01-27T01:41:18.238Z,116.28
2023-01-27T01:43:45.060Z,117.80
2023-01-27T01:46:12.687Z,117.18
2023-01-27T01:48:53.268Z,115.03
2023-01-27T01:51:30.537Z,117.97
2023-01-27T01:54:16.410Z,114.55
2023-01-27T01:56:55.647Z,122.47
2023-01-27T01:59:33.427Z,115.43
2023-01-27T02:02:04.874Z,115.78
2023-01-27T02:04:46.967Z,121.47
2023-01-27T02:07:21.645Z,127.20
2023-01-27T02:09:48.694Z,131.75
2023-01-27T02:12:15.357Z,116.82
2023-01-27T02:14:42.249Z,117.70
2023-01-27T02:17:11.318Z,118.63
2023-01-27T02:19:45.066Z,119.22
2023-01-27T02:22:18.979Z,123.00
2023-01-27T02:24:49.731Z,121.50
2023-01-27T02:27:16.479Z,118.47
2023-01-27T02:29:43.086Z,117.55
2023-01-27T02:32:25.693Z,124.50
2023-01-27T02:34:55.526Z,123.22
2023-01-27T02:37:24.040Z,117.13
2023-01-27T02:39:52.143Z,114.25
2023-01-27T02:42:19.736Z,128.25
2023-01-27T02:44:46.328Z,114.07
2023-01-27T02:47:12.996Z,121.50
2023-01-27T02:49:39.637Z,111.15
2023-01-27T02:52:06.302Z,123.57
2023-01-27T02:54:32.913Z,115.70
2023-01-27T02:56:59.548Z,115.65
2023-01-27T02:59:26.190Z,118.60
2023-01-27T03:01:52.877Z,112.85
2023-01-27T03:04:19.468Z,120.20
2023-01-27T03:06:46.100Z,115.25
2023-01-27T03:09:12.799Z,117.47
2023-01-27T03:11:58.101Z,119.95
2023-01-27T03:14:43.603Z,113.00
2023-01-27T03:17:29.049Z,118.20
2023-01-27T03:19:55.665Z,121.10
2023-01-27T03:22:22.393Z,118.07
2023-01-27T03:24:49.042Z,124.50
2023-01-27T03:27:15.680Z,111.20
2023-01-27T03:29:57.907Z,118.55
2023-01-27T03:32:29.538Z,110.35
2023-01-27T03:35:00.492Z,116.35
2023-01-27T03:37:47.019Z,117.07
2023-01-27T03:40:33.247Z,109.60
2023-01-27T03:43:18.717Z,116.07
2023-01-27T03:46:07.111Z,109.85
2023-01-27T03:48:34.907Z,108.60
2023-01-27T03:51:03.369Z,114.45
2023-01-27T03:53:30.238Z,113.18
2023-01-27T03:55:56.986Z,108.50
2023-01-27T03:58:23.606Z,109.78
2023-01-27T04:00:52.772Z,113.95
2023-01-27T04:03:38.896Z,112.10
2023-01-27T04:06:25.893Z,107.60
2023-01-27T04:08:52.814Z,108.15
2023-01-27T04:11:38.108Z,109.75
2023-01-27T04:14:06.008Z,112.75
2023-01-27T04:16:34.401Z,110.18
2023-01-27T04:19:01.056Z,106.93
2023-01-27T04:21:27.709Z,111.30
2023-01-27T04:23:54.625Z,108.18
2023-01-27T04:26:22.222Z,113.30
2023-01-27T04:28:49.562Z,106.72
2023-01-27T04:31:17.073Z,109.95
2023-01-27T04:33:45.094Z,110.63
2023-01-27T04:36:12.922Z,102.30
2023-01-27T04:38:39.594Z,105.95
2023-01-27T04:41:06.189Z,106.40
2023-01-27T04:43:32.801Z,106.28
2023-01-27T04:45:59.465Z,112.57
2023-01-27T04:48:26.090Z,107.85
2023-01-27T04:50:52.710Z,106.20
2023-01-27T04:53:19.357Z,109.13
2023-01-27T04:55:48.911Z,106.45
2023-01-27T04:58:17.693Z,105.60
2023-01-27T05:00:45.461Z,108.57
2023-01-27T05:03:12.239Z,106.10
2023-01-27T05:05:39.128Z,114.55
2023-01-27T05:08:06.930Z,112.75
2023-01-27T05:10:33.856Z,104.45
2023-01-27T05:13:01.874Z,106.10
2023-01-27T05:15:29.282Z,108.82
2023-01-27T05:17:56.191Z,104.45
2023-01-27T05:20:22.943Z,108.80
2023-01-27T05:22:51.327Z,104.20
2023-01-27T05:25:18.027Z,111.05
2023-01-27T05:27:44.962Z,107.38
2023-01-27T05:30:12.218Z,109.20
2023-01-27T05:32:38.828Z,107.95
2023-01-27T05:35:05.999Z,102.78
2023-01-27T05:37:32.726Z,109.60
2023-01-27T05:39:59.471Z,108.65
2023-01-27T05:42:26.148Z,108.80
2023-01-27T05:44:52.772Z,104.85
2023-01-27T05:47:19.387Z,103.78
2023-01-27T05:49:45.989Z,106.22
2023-01-27T05:52:12.596Z,106.95
2023-01-27T05:54:39.202Z,101.10
2023-01-27T05:57:05.827Z,106.30
2023-01-27T05:59:32.564Z,102.57
2023-01-27T06:01:59.296Z,110.07
2023-01-27T06:04:26.598Z,103.72
2023-01-27T06:06:53.217Z,106.25
2023-01-27T06:09:19.891Z,102.60
2023-01-27T06:11:47.325Z,106.75
2023-01-27T06:14:14.653Z,103.22
2023-01-27T06:16:41.410Z,112.68
2023-01-27T06:19:08.305Z,105.82
2023-01-27T06:21:34.954Z,102.47
2023-01-27T06:24:01.652Z,105.75
2023-01-27T06:26:28.336Z,109.25
2023-01-27T06:28:56.905Z,108.65
2023-01-27T06:31:23.781Z,107.82
2023-01-27T06:33:51.146Z,99.93
2023-01-27T06:36:19.764Z,101.60
2023-01-27T06:38:46.815Z,105.22
2023-01-27T06:41:13.611Z,105.28
2023-01-27T06:43:40.254Z,102.30
2023-01-27T06:46:07.123Z,101.10
2023-01-27T06:48:34.150Z,106.80
2023-01-27T06:51:00.791Z,105.97
2023-01-27T06:53:27.501Z,104.85
2023-01-27T06:55:59.429Z,103.50
2023-01-27T06:58:26.253Z,105.80
2023-01-27T07:00:52.889Z,103.88
2023-01-27T07:03:19.634Z,101.68
2023-01-27T07:05:46.264Z,102.97
2023-01-27T07:08:12.905Z,104.60
2023-01-27T07:10:39.553Z,108.22
2023-01-27T07:13:10.641Z,100.65
2023-01-27T07:15:37.741Z,98.88
2023-01-27T07:18:05.131Z,103.57
2023-01-27T07:20:32.599Z,102.03
2023-01-27T07:23:01.176Z,105.40
2023-01-27T07:25:29.019Z,100.45
2023-01-27T07:27:58.008Z,98.80
2023-01-27T07:30:25.265Z,105.97
2023-01-27T07:32:52.375Z,100.07
2023-01-27T07:35:19.073Z,101.75
2023-01-27T07:37:45.714Z,104.80
2023-01-27T07:40:16.142Z,99.75
2023-01-27T07:42:43.043Z,101.90
2023-01-27T07:45:10.002Z,104.28
2023-01-27T07:47:36.691Z,103.72
2023-01-27T07:50:03.571Z,101.22
2023-01-27T07:52:30.289Z,100.53
2023-01-27T07:54:56.961Z,101.03
2023-01-27T07:57:23.640Z,97.90
2023-01-27T07:59:55.211Z,97.35
2023-01-27T08:02:22.796Z,99.75
2023-01-27T08:04:53.767Z,103.07
2023-01-27T08:07:21.094Z,101.15
2023-01-27T08:09:47.772Z,100.43
2023-01-27T08:12:14.588Z,100.90
2023-01-27T08:14:41.275Z,100.97
2023-01-27T08:17:07.909Z,99.85
2023-01-27T08:19:34.540Z,103.45
2023-01-27T08:22:01.231Z,103.55
2023-01-27T08:24:27.955Z,104.50
2023-01-27T08:26:54.856Z,101.47
2023-01-27T08:29:21.500Z,101.05
2023-01-27T08:31:48.199Z,99.63
2023-01-27T08:34:15.073Z,99.25
2023-01-27T08:36:43.466Z,101.70
2023-01-27T08:39:11.094Z,100.88
2023-01-27T08:41:38.489Z,99.35
2023-01-27T08:44:05.653Z,103.35
2023-01-27T08:46:32.370Z,100.45
2023-01-27T08:48:58.972Z,104.25
2023-01-27T08:51:25.609Z,102.93
2023-01-27T08:53:52.209Z,103.28
2023-01-27T08:56:18.921Z,104.22
2023-01-27T08:58:48.314Z,102.15
2023-01-27T09:01:16.333Z,101.35
2023-01-27T09:03:43.006Z,100.90
2023-01-27T09:06:11.357Z,101.57
2023-01-27T09:08:39.271Z,103.43
2023-01-27T09:11:17.522Z,99.97
2023-01-27T09:13:44.263Z,99.90
2023-01-27T09:16:10.963Z,100.00
2023-01-27T09:18:37.836Z,101.18
2023-01-27T09:21:05.903Z,102.43
2023-01-27T09:23:34.049Z,102.65
2023-01-27T09:26:00.805Z,101.40
2023-01-27T09:28:27.622Z,100.55
2023-01-27T09:30:57.825Z,99.43
2023-01-27T09:33:25.931Z,102.72
2023-01-27T09:35:57.480Z,100.28
2023-01-27T09:38:27.041Z,101.25
2023-01-27T09:41:20.604Z,100.65
2023-01-27T09:43:58.774Z,98.53
2023-01-27T09:46:39.323Z,97.53
2023-01-27T09:49:28.367Z,101.75
2023-01-27T09:52:02.121Z,99.10
2023-01-27T09:54:48.305Z,99.10
2023-01-27T09:57:27.023Z,98.03
2023-01-27T10:00:44.538Z,98.00
2023-01-27T10:03:30.555Z,96.32
2023-01-27T10:06:21.744Z,98.40
2023-01-27T10:08:56.985Z,99.15
2023-01-27T10:11:49.248Z,96.68
2023-01-27T10:14:58.594Z,97.55
2023-01-27T10:17:28.031Z,96.45
2023-01-27T10:20:14.768Z,97.53
2023-01-27T10:23:06.391Z,95.32
2023-01-27T10:25:53.479Z,95.57
2023-01-27T10:28:27.636Z,94.60
2023-01-27T10:31:19.706Z,96.90
2023-01-27T10:34:01.709Z,97.68
2023-01-27T10:36:31.967Z,95.10
2023-01-27T10:39:07.610Z,95.88
2023-01-27T10:41:56.704Z,97.25
2023-01-27T10:44:26.133Z,95.75
2023-01-27T10:47:25.431Z,99.05
2023-01-27T10:49:57.305Z,93.78
2023-01-27T10:52:46.403Z,94.38
2023-01-27T10:55:29.637Z,94.18
2023-01-27T10:58:00.262Z,96.15
2023-01-27T11:01:19.305Z,95.35
2023-01-27T11:03:49.403Z,93.85
2023-01-27T11:06:25.169Z,93.85
2023-01-27T11:08:56.441Z,94.25
2023-01-27T11:11:43.603Z,95.00
2023-01-27T11:14:25.108Z,94.07
2023-01-27T11:16:56.745Z,92.57
2023-01-27T11:19:30.564Z,93.93
2023-01-27T11:22:07.881Z,94.60
2023-01-27T11:24:47.111Z,94.35
2023-01-27T11:27:45.145Z,91.85
2023-01-27T11:30:26.555Z,94.15
2023-01-27T11:33:09.501Z,92.97
2023-01-27T11:35:36.210Z,93.93
2023-01-27T11:38:15.088Z,94.88
2023-01-27T11:40:45.404Z,92.47
2023-01-27T11:45:46.831Z,93.00
2023-01-27T11:48:16.993Z,94.15
2023-01-27T11:50:44.977Z,96.22
2023-01-27T11:53:16.755Z,94.05
2023-01-27T11:55:48.803Z,93.75
2023-01-27T11:58:31.975Z,93.90
2023-01-27T12:01:15.854Z,93.88
2023-01-27T12:04:01.138Z,93.40
2023-01-27T12:06:40.572Z,95.18
2023-01-27T12:09:07.206Z,93.57
2023-01-27T12:11:33.898Z,92.72
2023-01-27T12:14:03.195Z,92.75
2023-01-27T12:16:50.277Z,92.05
2023-01-27T12:19:27.859Z,92.53
2023-01-27T12:22:00.303Z,93.38
2023-01-27T12:24:34.564Z,93.20
2023-01-27T12:27:02.826Z,92.45
2023-01-27T12:29:40.637Z,91.80
2023-01-27T12:32:17.745Z,92.32
2023-01-27T12:34:51.568Z,91.97
2023-01-27T12:37:27.357Z,91.68
2023-01-27T12:40:16.383Z,91.28
2023-01-27T12:42:48.103Z,91.32
2023-01-27T12:45:22.860Z,92.97
2023-01-27T12:48:01.880Z,98.20
2023-01-27T12:50:31.574Z,91.93
2023-01-27T12:53:13.350Z,92.20
2023-01-27T12:55:46.835Z,90.68
2023-01-27T12:58:31.386Z,91.82
2023-01-27T13:01:00.083Z,90.82
2023-01-27T13:03:27.433Z,92.43
2023-01-27T13:05:56.957Z,95.32
2023-01-27T13:08:26.157Z,91.28
2023-01-27T13:10:57.449Z,90.82
2023-01-27T13:13:26.902Z,92.25
2023-01-27T13:16:17.257Z,91.03
2023-01-27T13:19:01.516Z,97.80
2023-01-27T13:21:35.421Z,91.72
2023-01-27T13:24:06.319Z,91.53
2023-01-27T13:26:37.285Z,92.53
2023-01-27T13:29:17.980Z,91.22
2023-01-27T13:32:14.116Z,91.78
2023-01-27T13:35:14.586Z,91.65
2023-01-27T13:38:06.392Z,91.43
2023-01-27T13:40:45.764Z,92.63
2023-01-27T13:43:32.595Z,91.53
2023-01-27T13:46:24.395Z,91.05
2023-01-27T13:48:55.114Z,93.00
2023-01-27T13:51:24.617Z,90.15
2023-01-27T13:54:06.742Z,91.43
2023-01-27T13:57:04.446Z,91.30
2023-01-27T13:59:52.278Z,90.95
2023-01-27T14:02:28.308Z,90.72
2023-01-27T14:05:18.466Z,92.28
2023-01-27T14:07:54.836Z,91.00
2023-01-27T14:10:35.642Z,90.53
2023-01-27T14:13:35.519Z,90.72
2023-01-27T14:16:13.026Z,90.32
2023-01-27T14:18:57.188Z,90.15
2023-01-27T14:21:55.596Z,89.80
2023-01-27T14:24:34.375Z,90.72
2023-01-27T14:27:05.367Z,89.72
2023-01-27T14:29:54.709Z,89.63
2023-01-27T14:32:39.145Z,90.93
2023-01-27T14:35:26.829Z,94.85
2023-01-27T14:38:10.591Z,93.22
2023-01-27T14:41:01.781Z,90.80
2023-01-27T14:43:43.140Z,90.55
2023-01-27T14:46:28.444Z,91.53
2023-01-27T14:49:36.297Z,90.03
2023-01-27T14:52:11.703Z,91.00
2023-01-27T14:55:10.875Z,92.70
2023-01-27T14:58:08.962Z,91.47
2023-01-27T15:00:55.848Z,90.90
2023-01-27T15:03:41.102Z,93.22
2023-01-27T15:06:33.982Z,89.88
2023-01-27T15:09:00.595Z,90.22
2023-01-27T15:11:43.718Z,90.32
2023-01-27T15:14:43.434Z,89.78
2023-01-27T15:17:18.985Z,91.72
2023-01-27T15:19:58.206Z,90.25
2023-01-27T15:22:31.311Z,90.35
2023-01-27T15:25:19.693Z,90.28
2023-01-27T15:27:48.427Z,89.57
2023-01-27T15:30:21.708Z,89.53
2023-01-27T15:32:48.351Z,89.65
2023-01-27T15:35:36.686Z,89.43
2023-01-27T15:38:08.120Z,90.93
2023-01-27T15:40:59.057Z,90.00
2023-01-27T15:43:29.696Z,90.10
2023-01-27T15:45:58.149Z,90.13
2023-01-27T15:48:32.640Z,90.28
2023-01-27T15:51:07.098Z,91.35
2023-01-27T15:53:39.098Z,90.75
2023-01-27T15:56:06.450Z,90.35
2023-01-27T15:58:39.621Z,90.15
2023-01-27T16:01:22.642Z,90.55
2023-01-27T16:03:50.604Z,90.22
2023-01-27T16:06:23.680Z,89.57
2023-01-27T16:09:03.810Z,90.20
2023-01-27T16:11:39.408Z,89.78
2023-01-27T16:14:12.211Z,91.53
2023-01-27T16:16:40.505Z,90.32
2023-01-27T16:19:11.093Z,94.85
2023-01-27T16:21:53.447Z,90.30
2023-01-27T16:24:25.390Z,90.90
2023-01-27T16:26:59.641Z,91.15
2023-01-27T16:29:38.500Z,91.88
2023-01-27T16:32:16.956Z,91.97
2023-01-27T16:34:53.212Z,91.78
2023-01-27T16:37:27.295Z,90.03
2023-01-27T16:39:59.310Z,90.57
2023-01-27T16:42:44.464Z,91.45
2023-01-27T16:45:30.004Z,90.25
2023-01-27T16:48:12.768Z,90.00
2023-01-27T16:50:41.865Z,90.50
2023-01-27T16:53:28.833Z,90.38
2023-01-27T16:56:04.941Z,91.03
2023-01-27T16:58:45.602Z,92.25
2023-01-27T17:01:45.566Z,90.80
2023-01-27T17:04:24.948Z,91.47
2023-01-27T17:06:56.002Z,92.05
2023-01-27T17:09:28.240Z,90.22
2023-01-27T17:11:55.609Z,90.88
2023-01-27T17:14:38.206Z,90.97
2023-01-27T17:17:14.963Z,91.60
2023-01-27T17:19:47.312Z,94.72
2023-01-27T17:22:24.286Z,91.18
2023-01-27T17:24:54.018Z,92.25
2023-01-27T17:27:27.826Z,90.22
2023-01-27T17:30:01.565Z,90.55
2023-01-27T17:32:34.073Z,90.57
2023-01-27T17:35:08.509Z,91.95
2023-01-27T17:37:43.149Z,92.82
2023-01-27T17:40:21.574Z,92.72
2023-01-27T17:42:49.250Z,91.53
2023-01-27T17:45:31.976Z,92.82
2023-01-27T17:47:59.694Z,91.82
2023-01-27T17:50:34.260Z,91.45
2023-01-27T17:53:01.086Z,95.38
2023-01-27T17:55:30.944Z,90.72
2023-01-27T17:58:04.519Z,91.35
2023-01-27T18:00:35.410Z,92.28
2023-01-27T18:03:24.796Z,91.35
2023-01-27T18:05:54.463Z,91.32
2023-01-27T18:08:23.501Z,91.75
2023-01-27T18:10:50.974Z,90.75
2023-01-27T18:13:20.370Z,91.10
2023-01-27T18:16:14.096Z,91.82
2023-01-27T18:18:40.767Z,91.32
2023-01-27T18:21:10.223Z,91.28
2023-01-27T18:23:46.450Z,92.80
2023-01-27T18:26:21.729Z,92.70
2023-01-27T18:28:57.833Z,91.68
2023-01-27T18:31:34.303Z,91.72
2023-01-27T18:34:04.129Z,91.88
2023-01-27T18:36:36.455Z,92.05
2023-01-27T18:39:43.360Z,91.93
2023-01-27T18:42:15.232Z,91.35
2023-01-27T18:44:42.212Z,92.68
2023-01-27T18:47:17.864Z,91.45
2023-01-27T18:49:58.999Z,92.03
2023-01-27T18:52:26.220Z,91.95
2023-01-27T18:55:01.830Z,92.13
2023-01-27T18:57:28.700Z,93.03
2023-01-27T18:59:55.294Z,92.70
2023-01-27T19:02:22.254Z,92.60
2023-01-27T19:04:49.000Z,92.40
2023-01-27T19:07:17.923Z,91.88
2023-01-27T19:09:45.936Z,92.22
2023-01-27T19:12:12.876Z,92.43
2023-01-27T19:14:41.728Z,92.63
2023-01-27T19:17:17.282Z,92.15
2023-01-27T19:19:44.075Z,91.95
2023-01-27T19:22:16.108Z,91.78
2023-01-27T19:24:45.441Z,92.30
2023-01-27T19:27:14.017Z,95.78
2023-01-27T19:29:41.112Z,93.45
2023-01-27T19:32:11.708Z,92.13
2023-01-27T19:34:38.376Z,91.78
2023-01-27T19:37:05.406Z,91.88
2023-01-27T19:39:32.006Z,92.20
2023-01-27T19:41:58.644Z,93.47
2023-01-27T19:44:25.393Z,91.70
2023-01-27T19:46:52.036Z,92.82
2023-01-27T19:49:19.647Z,93.38
2023-01-27T19:51:46.305Z,93.45
2023-01-27T19:54:12.969Z,91.00
2023-01-27T19:56:39.603Z,91.85
2023-01-27T19:59:06.389Z,93.75
2023-01-27T20:01:33.064Z,95.22
2023-01-27T20:03:59.804Z,92.25
2023-01-27T20:06:28.728Z,91.32
2023-01-27T20:08:59.405Z,93.20
2023-01-27T20:11:36.220Z,92.32
2023-01-27T20:14:13.593Z,92.32
2023-01-27T20:16:40.825Z,92.35
2023-01-27T20:19:07.721Z,92.18
2023-01-27T20:21:34.509Z,92.35
2023-01-27T20:24:02.022Z,92.65
2023-01-27T20:26:31.114Z,93.45
2023-01-27T20:28:58.141Z,91.70
2023-01-27T20:31:24.957Z,92.53
2023-01-27T20:33:52.025Z,92.90
2023-01-27T20:36:21.397Z,93.05
2023-01-27T20:38:48.544Z,92.63
2023-01-27T20:41:20.439Z,92.93
2023-01-27T20:43:47.108Z,92.82
2023-01-27T20:46:16.593Z,96.35
2023-01-27T20:48:44.063Z,92.75
2023-01-27T20:51:13.293Z,93.70
2023-01-27T20:53:47.681Z,91.63
2023-01-27T20:56:17.142Z,92.82
2023-01-27T20:58:44.590Z,92.97
2023-01-27T21:01:20.057Z,92.20
2023-01-27T21:03:47.249Z,94.68
2023-01-27T21:06:15.741Z,91.07
2023-01-27T21:08:47.507Z,91.93
2023-01-27T21:11:15.958Z,92.07
2023-01-27T21:13:42.744Z,93.53
2023-01-27T21:16:10.300Z,93.57
2023-01-27T21:18:37.337Z,92.65
2023-01-27T21:21:04.536Z,92.65
2023-01-27T21:23:33.267Z,91.93
2023-01-27T21:26:11.561Z,92.43
2023-01-27T21:28:38.195Z,92.97
2023-01-27T21:31:16.182Z,92.53
2023-01-27T21:33:45.650Z,92.78
2023-01-27T21:36:12.390Z,92.82
2023-01-27T21:38:39.638Z,92.15
2023-01-27T21:41:35.872Z,92.15
2023-01-27T21:44:21.332Z,92.57
2023-01-27T21:46:48.057Z,92.72
2023-01-27T21:49:15.271Z,94.80
2023-01-27T21:51:42.846Z,93.90
2023-01-27T21:54:09.900Z,92.20
2023-01-27T21:56:36.520Z,92.80
2023-01-27T21:59:03.229Z,92.65
2023-01-27T22:01:31.660Z,92.22
2023-01-27T22:03:58.538Z,91.82
2023-01-27T22:06:26.014Z,91.43
2023-01-27T22:08:52.738Z,92.97
2023-01-27T22:11:19.465Z,92.80
2023-01-27T22:13:46.219Z,91.70
2023-01-27T22:16:15.064Z,90.63
2023-01-27T22:18:42.526Z,93.07
2023-01-27T22:21:09.512Z,92.78
2023-01-27T22:23:36.137Z,91.53
2023-01-27T22:26:05.691Z,93.60
2023-01-27T22:28:32.414Z,92.18
2023-01-27T22:31:02.544Z,92.55
2023-01-27T22:33:29.318Z,91.85
2023-01-27T22:36:01.303Z,92.70
2023-01-27T22:38:28.201Z,93.05
2023-01-27T22:41:00.929Z,91.15
2023-01-27T22:43:27.589Z,91.75
2023-01-27T22:45:54.305Z,92.15
2023-01-27T22:48:21.031Z,92.20
2023-01-27T22:50:47.673Z,92.35
2023-01-27T22:53:14.302Z,91.90
2023-01-27T22:55:40.965Z,92.78
2023-01-27T22:58:08.556Z,91.97
2023-01-27T23:00:35.641Z,91.72
2023-01-27T23:03:02.368Z,92.13
2023-01-27T23:05:29.080Z,92.20
2023-01-27T23:07:55.771Z,92.63
2023-01-27T23:10:23.637Z,92.38
2023-01-27T23:12:50.283Z,91.65
2023-01-27T23:15:17.407Z,93.32
2023-01-27T23:17:44.217Z,91.72
2023-01-27T23:20:11.529Z,94.30
2023-01-27T23:22:38.188Z,93.25
2023-01-27T23:25:05.521Z,92.80
2023-01-27T23:27:32.612Z,94.13
2023-01-27T23:29:59.236Z,92.55
2023-01-27T23:32:25.862Z,92.32
2023-01-27T23:34:52.489Z,91.72
2023-01-27T23:37:19.138Z,92.80
2023-01-27T23:39:48.659Z,92.28
2023-01-27T23:42:16.821Z,92.03
2023-01-27T23:44:43.690Z,91.63
2023-01-27T23:47:11.434Z,92.25
2023-01-27T23:49:38.081Z,91.55
2023-01-27T23:52:04.999Z,93.50
2023-01-27T23:54:32.762Z,92.53
2023-01-27T23:56:59.907Z,92.38
2023-01-27T23:59:26.520Z,92.03
